Time;durP1;ratioP1;P1;durP2;ratioP2;P2;SDS_P1;SDS_P2;PMS_P1;PMS_P2;Temp;Humidity;BMP_temperature;BMP_pressure;BME280_temperature;BME280_humidity;BME280_pressure;Samples;Min_cycle;Max_cycle;Signal;HPM_P1;HPM_P2
2022/05/30 00:01:41;;;;;;;3.42;2.60;;;;;;;14.47;68.63;100297.30;1762371;81;21044;-70
2022/05/30 00:04:08;;;;;;;2.80;2.30;;;;;;;14.49;68.84;100297.52;1764208;80;21127;-70
2022/05/30 00:06:35;;;;;;;3.17;2.70;;;;;;;14.50;68.96;100297.86;1790018;80;21003;-71
2022/05/30 00:09:03;;;;;;;3.45;2.40;;;;;;;14.52;69.16;100305.68;1707291;82;22338;-73
2022/05/30 00:11:31;;;;;;;4.58;2.42;;;;;;;14.53;69.31;100304.69;1756501;81;21023;-71
2022/05/30 00:13:58;;;;;;;4.47;2.77;;;;;;;14.56;69.41;100320.33;1790980;80;21566;-70
2022/05/30 00:16:24;;;;;;;6.62;2.60;;;;;;;14.56;69.51;100317.18;1793618;80;20984;-71
2022/05/30 00:18:51;;;;;;;5.00;2.70;;;;;;;14.56;69.58;100316.34;1795319;80;21091;-71
2022/05/30 00:21:22;;;;;;;7.22;2.87;;;;;;;14.54;69.75;100303.70;1733194;81;22398;-71
2022/05/30 00:23:49;;;;;;;4.60;2.75;;;;;;;14.54;69.84;100299.72;1736668;81;21082;-71
2022/05/30 00:26:15;;;;;;;4.97;2.98;;;;;;;14.52;69.91;100285.25;1760906;80;21059;-70
2022/05/30 00:28:43;;;;;;;4.28;3.30;;;;;;;14.50;69.94;100273.94;1771084;80;21449;-71
2022/05/30 00:31:11;;;;;;;5.33;2.85;;;;;;;14.51;69.95;100261.48;1763055;80;20992;-70
2022/05/30 00:33:39;;;;;;;3.95;2.58;;;;;;;14.52;70.02;100260.50;1755882;81;21758;-70
2022/05/30 00:36:07;;;;;;;3.98;2.83;;;;;;;14.51;70.03;100253.52;1733956;81;20944;-70
2022/05/30 00:38:34;;;;;;;4.35;2.85;;;;;;;14.49;70.14;100255.00;1755199;81;20972;-70
2022/05/30 00:41:03;;;;;;;4.00;2.70;;;;;;;14.46;70.24;100251.29;1731589;81;21074;-70
2022/05/30 00:43:33;;;;;;;4.10;2.60;;;;;;;14.47;70.34;100256.11;1739064;81;21079;-70
2022/05/30 00:46:01;;;;;;;4.92;2.70;;;;;;;14.47;70.46;100246.31;1768638;79;21936;-70
2022/05/30 00:48:34;;;;;;;3.60;2.08;;;;;;;14.48;70.55;100240.54;1752386;81;20940;-71
2022/05/30 00:51:05;;;;;;;3.08;2.45;;;;;;;14.48;70.66;100218.78;1758748;80;20972;-69
2022/05/30 00:53:33;;;;;;;6.00;2.65;;;;;;;14.48;70.80;100215.30;1763540;80;21505;-71
2022/05/30 00:56:04;;;;;;;5.60;2.62;;;;;;;14.49;70.90;100216.96;1761224;81;20968;-70
2022/05/30 00:58:34;;;;;;;2.90;2.33;;;;;;;14.51;70.91;100211.83;1762150;80;22019;-70
2022/05/30 01:01:01;;;;;;;6.08;2.80;;;;;;;14.54;70.94;100204.88;1731567;81;21448;-71
2022/05/30 01:06:31;;;;;;;5.97;2.92;;;;;;;14.56;71.02;100170.16;1732729;82;21155;-70
2022/05/30 01:09:19;;;;;;;4.10;2.90;;;;;;;14.57;71.02;100170.04;1775715;80;20975;-69
2022/05/30 01:11:59;;;;;;;4.25;2.58;;;;;;;14.60;71.05;100178.19;1732598;82;21856;-71
2022/05/30 01:14:32;;;;;;;4.83;2.60;;;;;;;14.64;71.14;100176.88;1761024;80;20944;-72
2022/05/30 01:16:59;;;;;;;3.62;2.35;;;;;;;14.67;71.30;100186.37;1715640;82;21032;-70
2022/05/30 01:19:55;;;;;;;3.33;2.55;;;;;;;14.69;71.48;100189.23;1732504;82;20978;-69
2022/05/30 01:22:51;;;;;;;6.10;2.80;;;;;;;14.69;71.75;100199.87;1706321;82;21060;-69
2022/05/30 01:25:30;;;;;;;4.62;2.70;;;;;;;14.67;72.01;100200.53;1763423;81;22240;-70
2022/05/30 01:28:35;;;;;;;5.37;3.02;;;;;;;14.67;72.18;100199.20;1773766;80;21014;-70
2022/05/30 01:31:03;;;;;;;3.33;2.52;;;;;;;14.68;72.47;100190.73;1729988;81;21079;-70
2022/05/30 01:33:32;;;;;;;3.55;2.80;;;;;;;14.66;72.67;100186.87;1737887;81;20959;-71
2022/05/30 01:35:59;;;;;;;5.22;2.92;;;;;;;14.67;72.77;100183.25;1763633;80;20964;-71
2022/05/30 01:38:27;;;;;;;4.10;2.70;;;;;;;14.68;72.80;100176.94;1732796;82;22461;-72
2022/05/30 01:40:56;;;;;;;3.85;3.00;;;;;;;14.69;72.83;100175.95;1763665;81;20979;-71
2022/05/30 01:43:23;;;;;;;3.17;2.75;;;;;;;14.70;72.93;100160.83;1758215;80;21012;-70
2022/05/30 01:45:51;;;;;;;3.08;2.77;;;;;;;14.72;73.04;100166.33;1773519;80;21543;-70
2022/05/30 01:48:18;;;;;;;4.12;2.60;;;;;;;14.75;73.21;100171.33;1750516;80;20996;-71
2022/05/30 01:50:45;;;;;;;3.50;2.65;;;;;;;14.77;73.41;100161.89;1694017;82;22447;-70
2022/05/30 01:53:19;;;;;;;3.75;2.90;;;;;;;14.79;73.59;100178.52;1699223;84;20997;-71
2022/05/30 01:56:06;;;;;;;4.37;2.92;;;;;;;14.79;73.72;100186.00;1705039;82;20996;-74
2022/05/30 01:58:33;;;;;;;4.22;3.47;;;;;;;14.79;73.91;100191.32;1721900;82;21115;-70
2022/05/30 02:01:22;;;;;;;6.67;3.92;;;;;;;14.77;73.91;100198.62;1711667;82;20956;-72
2022/05/30 02:03:51;;;;;;;5.45;3.45;;;;;;;14.72;74.06;100198.23;1697843;82;21810;-71
2022/05/30 02:06:20;;;;;;;5.95;3.62;;;;;;;14.71;74.17;100196.56;1744369;81;20992;-73
2022/05/30 02:08:48;;;;;;;4.55;3.70;;;;;;;14.69;74.29;100187.91;1752979;80;21089;-71
2022/05/30 02:11:16;;;;;;;4.80;3.60;;;;;;;14.68;74.39;100191.56;1719625;82;21497;-72
2022/05/30 02:13:43;;;;;;;5.58;3.55;;;;;;;14.70;74.47;100190.08;1716647;82;21002;-73
2022/05/30 02:18:58;;;;;;;3.87;3.50;;;;;;;14.70;74.57;100202.87;1719257;82;21092;-71
2022/05/30 02:21:27;;;;;;;4.65;3.52;;;;;;;14.70;74.58;100203.37;1686579;84;21155;-70
2022/05/30 02:23:54;;;;;;;6.33;3.75;;;;;;;14.69;74.58;100206.52;1717391;82;20990;-71
2022/05/30 02:26:20;;;;;;;4.83;3.40;;;;;;;14.68;74.58;100208.84;1730099;82;21014;-71
2022/05/30 02:28:48;;;;;;;5.03;3.50;;;;;;;14.69;74.65;100211.00;1741367;82;21960;-70
2022/05/30 02:31:15;;;;;;;4.72;3.80;;;;;;;14.69;74.65;100217.65;1726403;82;20990;-73
2022/05/30 02:36:41;;;;;;;10.00;6.28;;;;;;;14.65;74.74;100220.25;1725940;82;21006;-72
2022/05/30 02:39:15;;;;;;;10.03;7.92;;;;;;;14.58;74.80;100220.05;1700920;84;21633;-70
2022/05/30 02:42:00;;;;;;;9.73;8.73;;;;;;;14.56;74.78;100215.34;1698535;84;21928;-71
2022/05/30 02:44:28;;;;;;;13.05;9.40;;;;;;;14.54;74.72;100219.98;1717008;82;21040;-70
2022/05/30 02:46:59;;;;;;;11.35;9.78;;;;;;;14.52;74.69;100215.32;1724643;82;21075;-71
2022/05/30 02:49:27;;;;;;;14.00;10.13;;;;;;;14.51;74.68;100222.95;1731049;82;21015;-72
2022/05/30 02:51:55;;;;;;;13.72;9.65;;;;;;;14.49;74.69;100214.30;1757870;80;20996;-70
2022/05/30 02:54:22;;;;;;;12.15;9.43;;;;;;;14.49;74.76;100211.64;1757914;80;21938;-69
2022/05/30 02:57:05;;;;;;;10.10;7.97;;;;;;;14.50;74.74;100207.50;1756833;80;21007;-69
2022/05/30 02:59:33;;;;;;;9.73;7.67;;;;;;;14.51;74.85;100191.06;1763677;81;21051;-71
2022/05/30 03:02:01;;;;;;;11.03;7.20;;;;;;;14.51;74.96;100177.77;1755031;80;21110;-70
2022/05/30 03:04:29;;;;;;;8.75;6.58;;;;;;;14.54;75.00;100172.14;1754338;80;21053;-71
2022/05/30 03:06:55;;;;;;;8.65;6.72;;;;;;;14.58;74.98;100160.23;1710760;82;21940;-71
2022/05/30 03:09:24;;;;;;;8.58;5.62;;;;;;;14.63;74.97;100155.28;1740065;81;21177;-70
2022/05/30 03:12:10;;;;;;;6.62;4.70;;;;;;;14.69;74.89;100150.70;1731979;81;21457;-70
2022/05/30 03:14:38;;;;;;;6.08;4.67;;;;;;;14.73;74.82;100164.01;1727012;81;21031;-70
2022/05/30 03:17:06;;;;;;;7.17;4.20;;;;;;;14.76;74.83;100149.06;1757668;80;21492;-70
2022/05/30 03:19:34;;;;;;;6.50;4.60;;;;;;;14.82;74.80;100159.59;1723029;81;22080;-70
2022/05/30 03:22:00;;;;;;;6.42;4.45;;;;;;;14.86;74.63;100166.26;1762449;80;21011;-70
2022/05/30 03:24:28;;;;;;;5.55;4.10;;;;;;;14.90;74.44;100155.67;1767002;80;20980;-70
2022/05/30 03:26:55;;;;;;;4.87;3.98;;;;;;;14.96;74.22;100155.06;1766593;80;21027;-73
2022/05/30 03:29:23;;;;;;;6.25;4.08;;;;;;;15.01;74.10;100150.59;1755773;81;21047;-71
2022/05/30 03:31:50;;;;;;;4.80;3.75;;;;;;;15.08;74.01;100154.31;1760058;81;22012;-69
2022/05/30 03:34:17;;;;;;;4.92;3.15;;;;;;;15.14;73.80;100153.66;1763969;80;21494;-70
2022/05/30 03:36:43;;;;;;;4.80;3.30;;;;;;;15.19;73.59;100156.70;1735089;81;21079;-70
2022/05/30 03:39:10;;;;;;;3.90;3.00;;;;;;;15.27;73.47;100158.59;1763828;81;20980;-70
2022/05/30 03:41:55;;;;;;;5.78;3.35;;;;;;;15.32;73.12;100149.12;1731111;81;21033;-73
2022/05/30 03:44:24;;;;;;;5.28;3.02;;;;;;;15.38;72.91;100150.33;1761395;81;21831;-69
2022/05/30 03:46:50;;;;;;;6.08;3.30;;;;;;;15.45;72.52;100152.70;1767455;80;21050;-71
2022/05/30 03:49:17;;;;;;;7.15;3.70;;;;;;;15.48;72.18;100152.37;1728202;81;20991;-71
2022/05/30 03:51:44;;;;;;;5.60;3.52;;;;;;;15.51;71.83;100149.39;1729474;81;21360;-71
2022/05/30 03:54:11;;;;;;;5.37;3.47;;;;;;;15.53;71.28;100142.07;1753196;81;21347;-70
2022/05/30 03:56:39;;;;;;;4.55;3.10;;;;;;;15.56;71.05;100140.44;1754699;81;22647;-71
2022/05/30 03:59:07;;;;;;;5.70;3.20;;;;;;;15.58;70.94;100138.45;1755338;81;20948;-69
2022/05/30 04:01:34;;;;;;;7.45;3.87;;;;;;;15.64;70.87;100135.69;1753558;81;20945;-71
2022/05/30 04:04:01;;;;;;;7.12;3.20;;;;;;;15.67;70.57;100140.19;1753473;81;21439;-71
2022/05/30 04:06:28;;;;;;;6.75;3.35;;;;;;;15.69;70.11;100141.34;1726590;81;20953;-70
2022/05/30 04:08:55;;;;;;;7.62;3.20;;;;;;;15.69;69.94;100144.02;1731411;81;21893;-70
2022/05/30 04:11:41;;;;;;;6.12;3.37;;;;;;;15.68;69.62;100138.36;1729292;81;21433;-72
2022/05/30 04:14:31;;;;;;;5.15;3.15;;;;;;;15.68;69.45;100146.34;1644724;86;20991;-70
2022/05/30 04:17:08;;;;;;;4.50;3.25;;;;;;;15.70;69.54;100143.02;1636269;87;21015;-70
2022/05/30 04:19:36;;;;;;;4.80;3.20;;;;;;;15.70;69.55;100142.52;1680642;81;21098;-70
2022/05/30 04:22:04;;;;;;;5.35;3.02;;;;;;;15.70;69.56;100149.67;1711755;81;22241;-71
2022/05/30 04:24:32;;;;;;;6.95;3.00;;;;;;;15.72;69.67;100150.34;1714332;81;20980;-70
2022/05/30 04:27:01;;;;;;;5.45;3.20;;;;;;;15.78;69.71;100160.36;1728314;81;21375;-75
2022/05/30 04:29:29;;;;;;;7.33;3.08;;;;;;;15.81;69.57;100154.70;1729060;81;21049;-71
2022/05/30 04:32:06;;;;;;;6.65;3.50;;;;;;;15.83;69.33;100154.07;1713434;83;21100;-70
2022/05/30 04:34:33;;;;;;;4.62;3.10;;;;;;;15.83;69.29;100149.24;1727726;81;21851;-72
2022/05/30 04:37:00;;;;;;;4.55;3.40;;;;;;;15.86;69.33;100145.75;1729893;83;21022;-70
2022/05/30 04:39:27;;;;;;;6.53;3.50;;;;;;;15.93;69.34;100150.77;1733689;81;20953;-70
2022/05/30 04:41:53;;;;;;;6.37;3.10;;;;;;;15.99;68.94;100148.78;1729650;83;21073;-69
2022/05/30 04:44:33;;;;;;;4.87;3.25;;;;;;;15.99;67.81;100162.09;1723250;81;21629;-70
2022/05/30 04:47:17;;;;;;;9.63;3.45;;;;;;;15.98;67.46;100168.42;1707542;83;22575;-71
2022/05/30 04:49:48;;;;;;;5.17;3.50;;;;;;;15.99;67.26;100166.59;1730314;82;20949;-69
2022/05/30 04:52:15;;;;;;;5.45;3.27;;;;;;;15.97;66.93;100168.09;1738384;82;21509;-72
2022/05/30 04:54:42;;;;;;;8.68;3.58;;;;;;;15.95;66.69;100167.42;1738420;82;21038;-72
2022/05/30 04:57:11;;;;;;;6.58;3.20;;;;;;;15.92;66.74;100162.89;1739056;81;20974;-72
2022/05/30 04:59:42;;;;;;;6.60;3.42;;;;;;;15.88;66.66;100164.22;1725802;81;22527;-76
2022/05/30 05:02:12;;;;;;;8.95;3.40;;;;;;;15.84;66.85;100165.55;1705954;83;20953;-69
2022/05/30 05:04:39;;;;;;;5.67;3.50;;;;;;;15.78;67.17;100160.86;1738856;81;21008;-71
2022/05/30 05:07:07;;;;;;;5.75;3.70;;;;;;;15.79;67.43;100151.38;1737648;82;21068;-72
2022/05/30 05:09:53;;;;;;;7.03;3.75;;;;;;;15.83;67.50;100155.41;1736950;82;21118;-71
2022/05/30 05:12:37;;;;;;;5.40;3.98;;;;;;;15.86;67.72;100154.23;1718938;81;21828;-70
2022/05/30 05:15:23;;;;;;;7.42;3.95;;;;;;;15.87;68.00;100170.55;1711181;82;21025;-70
2022/05/30 05:17:54;;;;;;;6.53;3.70;;;;;;;15.84;68.36;100174.38;1670521;84;21005;-71
2022/05/30 05:20:23;;;;;;;6.33;3.85;;;;;;;15.89;68.69;100185.87;1731518;81;21009;-71
2022/05/30 05:22:51;;;;;;;5.83;3.50;;;;;;;15.95;68.75;100195.39;1725867;81;21063;-70
2022/05/30 05:25:19;;;;;;;7.53;4.15;;;;;;;16.01;68.71;100200.55;1719197;81;23276;-71
2022/05/30 05:27:50;;;;;;;5.72;4.15;;;;;;;16.00;68.69;100207.72;1693805;82;21062;-72
2022/05/30 05:30:19;;;;;;;7.03;4.20;;;;;;;16.01;68.74;100209.38;1717724;82;21540;-69
2022/05/30 05:32:48;;;;;;;8.50;4.55;;;;;;;16.02;68.67;100210.25;1737094;82;21490;-70
2022/05/30 05:35:15;;;;;;;5.58;3.70;;;;;;;16.01;68.70;100215.20;1725119;82;21032;-72
2022/05/30 05:37:43;;;;;;;6.92;4.20;;;;;;;16.03;68.76;100216.73;1730061;82;22019;-73
2022/05/30 05:40:24;;;;;;;7.05;4.03;;;;;;;16.06;68.71;100227.56;1734048;81;21068;-71
2022/05/30 05:42:52;;;;;;;6.17;4.08;;;;;;;16.06;68.79;100226.23;1711014;83;21071;-71
2022/05/30 05:45:20;;;;;;;6.62;3.95;;;;;;;16.13;68.76;100225.10;1680406;85;21029;-70
2022/05/30 05:47:47;;;;;;;8.05;4.70;;;;;;;16.14;68.72;100224.94;1733467;81;21076;-73
2022/05/30 05:50:17;;;;;;;6.78;4.35;;;;;;;16.16;68.70;100232.27;1724268;82;21879;-74
2022/05/30 05:52:43;;;;;;;8.88;4.60;;;;;;;16.16;68.79;100236.27;1723925;82;20974;-71
2022/05/30 05:55:12;;;;;;;9.18;4.87;;;;;;;16.19;68.94;100232.43;1699303;83;21046;-71
2022/05/30 05:57:40;;;;;;;6.83;4.60;;;;;;;16.20;69.13;100230.93;1677648;84;21083;-75
2022/05/30 06:00:08;;;;;;;10.50;4.85;;;;;;;16.24;69.07;100228.80;1695655;83;21076;-72
2022/05/30 06:02:39;;;;;;;7.87;4.92;;;;;;;16.29;69.00;100226.47;1693769;84;21837;-73
2022/05/30 06:05:08;;;;;;;8.03;4.62;;;;;;;16.37;68.96;100210.50;1697634;83;21054;-75
2022/05/30 06:07:40;;;;;;;7.40;4.92;;;;;;;16.46;68.79;100206.86;1662910;85;21047;-72
2022/05/30 06:10:13;;;;;;;6.85;5.22;;;;;;;16.58;68.72;100204.20;1675466;83;21092;-72
2022/05/30 06:12:45;;;;;;;9.38;4.70;;;;;;;16.69;68.61;100195.58;1699505;83;21078;-73
2022/05/30 06:15:17;;;;;;;7.35;5.05;;;;;;;16.76;68.53;100188.08;1709131;82;21683;-73
2022/05/30 06:18:04;;;;;;;8.55;5.10;;;;;;;16.90;68.61;100194.61;1684936;85;21051;-74
2022/05/30 06:20:31;;;;;;;7.55;5.00;;;;;;;17.05;68.46;100190.25;1699018;83;21446;-71
2022/05/30 06:22:58;;;;;;;9.00;5.00;;;;;;;17.15;68.16;100198.91;1681239;84;21107;-74
2022/05/30 06:25:43;;;;;;;8.53;5.15;;;;;;;17.24;68.03;100195.73;1695644;83;21054;-74
2022/05/30 06:28:28;;;;;;;10.28;5.67;;;;;;;17.34;67.48;100191.55;1726476;83;21964;-74
2022/05/30 06:30:59;;;;;;;8.28;4.90;;;;;;;17.43;66.52;100190.53;1721013;81;21469;-71
2022/05/30 06:33:27;;;;;;;7.85;5.47;;;;;;;17.42;66.08;100191.03;1725591;81;21553;-72
2022/05/30 06:35:55;;;;;;;7.95;5.40;;;;;;;17.40;65.63;100178.86;1737624;81;21326;-76
2022/05/30 06:38:22;;;;;;;7.00;4.97;;;;;;;17.41;65.80;100177.35;1700369;82;21517;-75
2022/05/30 06:40:50;;;;;;;8.95;5.65;;;;;;;17.48;65.74;100174.01;1730137;81;21711;-68
2022/05/30 06:43:19;;;;;;;6.33;5.25;;;;;;;17.61;65.81;100170.28;1735786;81;21000;-70
2022/05/30 06:46:04;;;;;;;8.90;4.97;;;;;;;17.75;65.53;100174.92;1694540;83;21088;-72
2022/05/30 06:48:54;;;;;;;8.28;5.80;;;;;;;17.84;64.50;100171.22;1712968;81;21003;-72
2022/05/30 06:51:20;;;;;;;10.25;5.22;;;;;;;17.82;64.29;100163.05;1720417;82;21012;-70
2022/05/30 06:53:47;;;;;;;8.90;5.70;;;;;;;17.85;64.39;100158.19;1702154;83;22409;-70
2022/05/30 06:56:17;;;;;;;10.40;6.08;;;;;;;17.95;64.29;100159.30;1712074;82;21027;-70
2022/05/30 06:58:45;;;;;;;8.98;5.80;;;;;;;18.05;64.26;100160.42;1732414;82;21063;-71
2022/05/30 07:01:12;;;;;;;7.87;5.92;;;;;;;18.10;63.72;100154.06;1720735;81;21372;-69
2022/05/30 07:03:39;;;;;;;8.00;5.70;;;;;;;18.09;63.54;100146.55;1756742;80;21046;-73
2022/05/30 07:06:12;;;;;;;7.50;5.45;;;;;;;18.14;63.64;100132.64;1694753;81;22222;-73
2022/05/30 07:08:43;;;;;;;7.50;5.67;;;;;;;18.27;63.77;100133.75;1734549;80;21022;-70
2022/05/30 07:11:29;;;;;;;8.90;6.00;;;;;;;18.38;63.30;100133.84;1733609;81;21103;-73
2022/05/30 07:13:55;;;;;;;9.05;6.10;;;;;;;18.43;63.09;100134.63;1762055;80;21486;-73
2022/05/30 07:16:25;;;;;;;8.93;6.15;;;;;;;18.49;62.89;100144.62;1733819;80;21469;-70
2022/05/30 07:18:52;;;;;;;8.40;6.12;;;;;;;18.45;62.11;100140.14;1702973;82;22637;-69
2022/05/30 07:21:19;;;;;;;10.85;6.40;;;;;;;18.35;62.37;100140.05;1725797;81;21056;-70
2022/05/30 07:24:06;;;;;;;9.65;6.12;;;;;;;18.35;62.61;100142.22;1707952;82;21035;-69
2022/05/30 07:26:47;;;;;;;9.05;6.55;;;;;;;18.23;62.26;100148.45;1765043;80;21083;-71
2022/05/30 07:29:32;;;;;;;8.40;6.40;;;;;;;18.08;62.50;100140.88;1766854;80;21042;-70
2022/05/30 07:32:17;;;;;;;13.88;6.40;;;;;;;17.94;62.98;100126.92;1715113;81;21856;-71
2022/05/30 07:34:57;;;;;;;12.25;5.78;;;;;;;17.93;63.64;100123.92;1705237;82;21015;-72
2022/05/30 07:37:33;;;;;;;12.70;6.60;;;;;;;18.00;63.67;100116.88;1777468;80;21034;-72
2022/05/30 07:40:06;;;;;;;10.60;7.05;;;;;;;18.08;63.28;100107.47;1755650;80;21444;-71
2022/05/30 07:42:41;;;;;;;10.60;5.87;;;;;;;18.05;62.99;100107.84;1730979;81;20963;-70
2022/05/30 07:45:13;;;;;;;10.33;6.53;;;;;;;18.01;63.11;100103.33;1769604;80;21868;-71
2022/05/30 07:47:44;;;;;;;10.50;6.75;;;;;;;17.99;63.28;100101.34;1731788;80;21222;-72
2022/05/30 07:50:13;;;;;;;8.08;6.80;;;;;;;18.06;63.43;100100.14;1750195;80;21477;-70
2022/05/30 07:52:56;;;;;;;7.17;4.67;;;;;;;18.16;63.35;100097.23;1659020;85;21110;-71
2022/05/30 07:55:42;;;;;;;11.73;6.60;;;;;;;18.25;63.12;100085.48;1702583;81;21072;-69
2022/05/30 07:58:08;;;;;;;12.43;6.85;;;;;;;18.30;63.01;100080.41;1701399;83;21774;-72
2022/05/30 08:00:36;;;;;;;13.20;6.97;;;;;;;18.26;63.10;100066.59;1718282;83;21078;-73
2022/05/30 08:03:05;;;;;;;10.60;6.42;;;;;;;18.23;62.90;100068.26;1696877;84;21120;-72
2022/05/30 08:05:32;;;;;;;9.20;6.62;;;;;;;18.15;62.92;100072.86;1695858;83;21119;-71
2022/05/30 08:08:05;;;;;;;9.30;6.50;;;;;;;18.10;63.02;100081.39;1676995;82;22195;-69
2022/05/30 08:10:33;;;;;;;10.63;6.55;;;;;;;18.09;63.04;100072.22;1732081;82;21785;-71
2022/05/30 08:13:00;;;;;;;13.48;7.12;;;;;;;18.05;63.17;100075.77;1730402;81;20948;-70
2022/05/30 08:15:33;;;;;;;10.48;6.70;;;;;;;18.11;63.51;100079.55;1751467;81;21008;-70
2022/05/30 08:18:07;;;;;;;8.50;5.20;;;;;;;18.28;63.68;100092.63;1746050;81;21489;-72
2022/05/30 08:20:34;;;;;;;8.78;6.78;;;;;;;18.42;63.20;100102.21;1721022;81;21025;-69
2022/05/30 08:23:02;;;;;;;11.83;7.03;;;;;;;18.44;63.08;100109.06;1702139;83;21853;-68
2022/05/30 08:25:29;;;;;;;8.90;6.60;;;;;;;18.42;62.84;100103.04;1694540;83;21016;-69
2022/05/30 08:27:55;;;;;;;10.82;6.80;;;;;;;18.37;62.79;100104.61;1696676;84;21094;-70
2022/05/30 08:30:23;;;;;;;10.45;7.03;;;;;;;18.30;62.86;100105.31;1725774;83;21071;-71
2022/05/30 08:33:15;;;;;;;11.40;7.15;;;;;;;18.27;63.14;100098.16;1719922;83;21067;-71
2022/05/30 08:36:04;;;;;;;13.15;7.17;;;;;;;18.29;63.32;100105.48;1720571;81;21859;-71
2022/05/30 08:38:33;;;;;;;12.30;8.25;;;;;;;18.30;63.19;100117.34;1728796;82;21035;-69
2022/05/30 08:43:49;;;;;;;10.63;7.40;;;;;;;18.22;63.66;100120.57;1704445;82;21011;-69
2022/05/30 08:46:32;;;;;;;10.38;7.08;;;;;;;18.19;63.60;100119.09;1751666;81;21103;-69
2022/05/30 08:49:19;;;;;;;13.15;7.78;;;;;;;18.11;63.77;100136.52;1753972;81;22563;-71
2022/05/30 08:52:19;;;;;;;11.97;7.97;;;;;;;18.08;64.02;100128.02;1748693;81;21046;-69
2022/05/30 08:55:11;;;;;;;10.13;8.25;;;;;;;18.07;64.13;100134.38;1750314;80;21078;-71
2022/05/30 08:58:14;;;;;;;13.75;8.40;;;;;;;17.99;64.37;100137.42;1755124;80;20992;-69
2022/05/30 09:00:58;;;;;;;10.38;8.13;;;;;;;17.90;64.71;100141.65;1745486;80;21528;-69
2022/05/30 09:03:41;;;;;;;12.35;8.38;;;;;;;17.86;64.97;100146.52;1744389;81;22127;-72
2022/05/30 09:06:23;;;;;;;15.05;9.48;;;;;;;17.92;65.21;100150.31;1753687;81;21011;-73
2022/05/30 09:08:54;;;;;;;14.93;8.73;;;;;;;17.99;65.41;100145.44;1734536;80;21015;-72
2022/05/30 09:11:47;;;;;;;11.18;8.18;;;;;;;18.09;65.43;100153.74;1724135;81;21003;-70
2022/05/30 09:14:38;;;;;;;14.10;8.78;;;;;;;18.16;65.40;100152.87;1758310;80;21027;-72
2022/05/30 09:17:08;;;;;;;12.63;8.20;;;;;;;18.25;65.37;100152.31;1748882;80;21813;-69
2022/05/30 09:19:35;;;;;;;15.93;8.90;;;;;;;18.37;65.18;100148.72;1753659;80;21091;-71
2022/05/30 09:22:04;;;;;;;12.73;8.50;;;;;;;18.38;64.99;100144.53;1773777;80;21019;-69
2022/05/30 09:24:35;;;;;;;17.48;8.40;;;;;;;18.41;65.01;100137.98;1755826;81;21115;-70
2022/05/30 09:27:06;;;;;;;13.35;8.60;;;;;;;18.46;64.85;100139.64;1754322;81;21063;-70
2022/05/30 09:29:43;;;;;;;16.67;9.28;;;;;;;18.51;64.69;100134.56;1746450;80;21958;-69
2022/05/30 09:33:01;;;;;;;14.57;8.60;;;;;;;18.55;64.56;100132.71;1748921;80;21020;-69
2022/05/30 09:35:34;;;;;;;12.78;8.90;;;;;;;18.55;64.22;100138.06;1750981;81;21096;-70
2022/05/30 09:38:22;;;;;;;15.68;9.10;;;;;;;18.51;64.32;100130.05;1753764;80;21004;-69
2022/05/30 09:41:15;;;;;;;13.60;9.08;;;;;;;18.55;64.44;100131.87;1749649;81;21055;-69
2022/05/30 09:44:03;;;;;;;12.80;9.03;;;;;;;18.60;64.48;100137.00;1734679;81;21800;-71
2022/05/30 09:46:38;;;;;;;12.98;9.18;;;;;;;18.63;64.54;100135.83;1740252;81;21429;-72
2022/05/30 09:49:30;;;;;;;13.22;8.88;;;;;;;18.63;64.57;100136.34;1729793;81;21270;-72
2022/05/30 09:52:04;;;;;;;15.13;9.40;;;;;;;18.70;64.67;100141.30;1750345;81;21489;-70
2022/05/30 09:54:34;;;;;;;16.50;9.45;;;;;;;18.76;64.51;100140.09;1737481;82;26789;-70
2022/05/30 09:57:14;;;;;;;15.10;9.93;;;;;;;18.80;64.64;100144.56;1726613;83;21819;-70
2022/05/30 09:59:49;;;;;;;13.80;9.55;;;;;;;18.81;64.90;100147.56;1721483;82;21055;-72
2022/05/30 10:02:33;;;;;;;13.45;9.45;;;;;;;18.83;65.21;100154.92;1719728;82;21502;-71
2022/05/30 10:05:22;;;;;;;13.20;9.23;;;;;;;18.82;65.33;100146.06;1722625;81;21043;-70
2022/05/30 10:07:54;;;;;;;15.18;9.45;;;;;;;18.81;65.59;100148.39;1729794;83;21489;-76
2022/05/30 10:10:40;;;;;;;15.23;9.33;;;;;;;18.77;65.87;100152.96;1752165;81;21849;-74
2022/05/30 10:13:09;;;;;;;14.20;9.75;;;;;;;18.73;66.03;100162.37;1753244;81;21039;-73
2022/05/30 10:15:57;;;;;;;17.52;9.85;;;;;;;18.71;66.51;100163.86;1714632;83;21031;-75
2022/05/30 10:18:30;;;;;;;15.43;9.68;;;;;;;18.76;67.15;100157.48;1753495;81;21031;-72
2022/05/30 10:21:11;;;;;;;15.43;10.20;;;;;;;18.82;67.41;100159.95;1757706;80;21047;-71
2022/05/30 10:28:14;;;;;;;16.73;9.80;;;;;;;19.04;68.37;100147.03;1732788;81;21006;-71
2022/05/30 10:31:37;;;;;;;15.55;9.88;;;;;;;19.26;68.75;100136.43;1698323;83;21043;-71
2022/05/30 10:34:42;;;;;;;16.30;9.55;;;;;;;19.40;68.58;100145.00;1758227;80;21034;-70
2022/05/30 10:37:37;;;;;;;17.98;9.78;;;;;;;19.58;68.68;100145.97;1752413;81;21021;-74
2022/05/30 10:40:27;;;;;;;16.02;10.05;;;;;;;19.85;69.20;100144.47;1750977;81;22334;-75
2022/05/30 10:42:59;;;;;;;16.57;10.32;;;;;;;20.16;69.25;100139.67;1752974;80;21535;-76
2022/05/30 10:45:46;;;;;;;16.75;10.38;;;;;;;20.39;68.66;100144.89;1743711;81;21033;-73
2022/05/30 10:48:31;;;;;;;19.42;10.00;;;;;;;20.39;67.10;100139.52;1731960;80;21041;-73
2022/05/30 10:51:05;;;;;;;16.67;9.83;;;;;;;20.32;66.95;100135.10;1748734;80;22101;-69
2022/05/30 10:53:47;;;;;;;18.55;9.70;;;;;;;20.34;67.21;100143.78;1758474;80;21835;-69
2022/05/30 10:56:31;;;;;;;13.83;10.05;;;;;;;20.31;66.84;100145.00;1699652;80;21528;-73
2022/05/30 10:59:23;;;;;;;14.43;9.90;;;;;;;20.24;66.79;100126.66;1736402;81;21035;-70
2022/05/30 11:02:01;;;;;;;14.45;10.40;;;;;;;20.20;66.89;100129.41;1756321;80;21056;-71
2022/05/30 11:04:53;;;;;;;16.45;9.53;;;;;;;20.17;66.83;100133.80;1731534;81;21237;-73
2022/05/30 11:07:44;;;;;;;16.00;8.85;;;;;;;20.11;66.43;100129.21;1778089;79;21806;-74
2022/05/30 11:10:33;;;;;;;14.93;9.90;;;;;;;20.04;66.45;100124.28;1715409;80;21099;-73
2022/05/30 11:13:32;;;;;;;15.90;9.58;;;;;;;20.06;66.79;100121.72;1756798;80;21070;-73
2022/05/30 11:16:40;;;;;;;18.17;10.40;;;;;;;20.07;66.78;100122.03;1741762;81;21078;-71
2022/05/30 11:19:32;;;;;;;18.57;9.83;;;;;;;20.01;66.70;100106.22;1702529;81;21034;-73
2022/05/30 11:22:18;;;;;;;17.00;10.70;;;;;;;20.06;66.92;100102.95;1727877;81;21832;-71
2022/05/30 11:24:51;;;;;;;14.43;9.83;;;;;;;20.13;66.85;100105.72;1729883;82;21477;-72
2022/05/30 11:27:40;;;;;;;16.23;9.73;;;;;;;20.19;66.67;100110.33;1760372;80;21629;-70
2022/05/30 11:30:15;;;;;;;14.65;11.22;;;;;;;20.27;66.67;100107.02;1755611;81;21466;-73
2022/05/30 11:32:50;;;;;;;14.43;9.75;;;;;;;20.33;66.41;100108.08;1762868;81;21063;-72
2022/05/30 11:35:33;;;;;;;15.88;9.80;;;;;;;20.37;65.98;100105.87;1759980;81;22450;-76
2022/05/30 11:38:26;;;;;;;11.93;6.97;;;;;;;20.32;65.49;100107.77;1767847;80;21016;-72
2022/05/30 11:41:44;;;;;;;16.42;9.25;;;;;;;20.28;65.55;100105.98;1670396;84;21085;-72
2022/05/30 11:44:46;;;;;;;14.10;9.68;;;;;;;20.28;65.35;100095.77;1757270;80;20999;-73
2022/05/30 11:47:51;;;;;;;15.53;9.03;;;;;;;20.25;65.40;100089.43;1691026;83;21213;-70
2022/05/30 11:50:36;;;;;;;13.50;9.63;;;;;;;20.29;65.76;100086.70;1682198;83;22625;-72
2022/05/30 11:53:43;;;;;;;15.98;8.80;;;;;;;20.34;65.57;100078.06;1708088;82;21488;-71
2022/05/30 11:56:22;;;;;;;13.98;8.45;;;;;;;20.41;65.73;100078.45;1751364;80;21051;-72
2022/05/30 11:59:16;;;;;;;16.27;9.55;;;;;;;20.50;65.20;100067.94;1763524;80;21027;-72
2022/05/30 12:01:43;;;;;;;13.28;8.20;;;;;;;20.63;65.03;100067.72;1745729;80;21073;-76
2022/05/30 12:04:24;;;;;;;13.48;9.00;;;;;;;20.77;64.94;100077.55;1752056;81;22540;-73
2022/05/30 12:07:26;;;;;;;17.70;8.93;;;;;;;20.88;64.67;100079.69;1765016;80;21060;-70
2022/05/30 12:10:26;;;;;;;15.72;8.85;;;;;;;20.94;64.34;100082.09;1742373;81;21539;-75
2022/05/30 12:13:11;;;;;;;14.47;8.40;;;;;;;20.93;64.15;100081.25;1761890;80;21023;-75
2022/05/30 12:16:12;;;;;;;15.00;8.20;;;;;;;20.96;64.03;100084.91;1760901;81;21086;-80